Greenbush, Virginia
Current Conditions -  °F | °C
As of 12:35 AM on Thursday 23 Oct 2014 (Local Time) from KMFV Reporting Station
Overcast Overcast  
Wind Chill: 55°   Ceiling: 2300
Heat Index: 55°   Visibility: 10mi
Dew Point: 45°   Wind: 17mph
Humidity: 67%   Direction: 330°NNW
Pressure: 29.83"   Gusts: 26mph
Location:  37.74°N, 75.68°W
Report Text: KMFV 230435Z AUTO 33015G23KT 300V360 10SM BKN023 OVC028 13/07 A2983 RMK AO2
Loading
Personal Weather Stations






























Interactive Weather Map
Tropical Storm Tracking
New forecast layout! Learn more

10-Day Weather Forecast

Advertisements
Track Severe Weather on mobile